createdAt,value
2024-02-24T00:01:39.335Z,99945.78
2024-02-24T00:05:02.291Z,99953.66
2024-02-24T00:08:24.339Z,99960.56
2024-02-24T00:11:46.181Z,99941.06
2024-02-24T00:15:09.017Z,99956.50
2024-02-24T00:18:30.734Z,99964.34
2024-02-24T00:21:53.810Z,99968.81
2024-02-24T00:25:15.359Z,99957.75
2024-02-24T00:28:37.318Z,99963.81
2024-02-24T00:31:58.960Z,99984.41
2024-02-24T00:35:20.922Z,99986.25
2024-02-24T00:38:44.148Z,99984.59
2024-02-24T00:42:06.625Z,99983.75
2024-02-24T00:45:28.972Z,99980.41
2024-02-24T00:48:51.075Z,99983.00
2024-02-24T00:52:12.882Z,99976.25
2024-02-24T00:55:36.279Z,99992.50
2024-02-24T00:58:58.504Z,99995.09
2024-02-24T01:02:20.505Z,99986.53
2024-02-24T01:05:43.528Z,99997.78
2024-02-24T01:09:05.712Z,99993.53
2024-02-24T01:12:29.034Z,100008.22
2024-02-24T01:15:50.671Z,100011.72
2024-02-24T01:19:12.809Z,100009.13
2024-02-24T01:22:34.937Z,100018.53
2024-02-24T01:25:56.626Z,100026.38
2024-02-24T01:29:19.908Z,100023.88
2024-02-24T01:32:42.351Z,100025.66
2024-02-24T01:36:04.358Z,100033.47
2024-02-24T01:39:26.054Z,100035.28
2024-02-24T01:42:47.834Z,100032.78
2024-02-24T01:46:13.382Z,100020.06
2024-02-24T01:49:35.065Z,100044.97
2024-02-24T01:52:56.913Z,100037.53
2024-02-24T01:56:20.616Z,100041.72
2024-02-24T01:59:42.817Z,100039.22
2024-02-24T02:03:06.634Z,100029.88
2024-02-24T02:06:30.186Z,100016.88
2024-02-24T02:09:56.504Z,99987.28
2024-02-24T02:13:18.339Z,100019.63
2024-02-24T02:16:40.408Z,100035.22
2024-02-24T02:20:05.908Z,100036.13
2024-02-24T02:23:29.452Z,100043.91
2024-02-24T02:26:51.185Z,100039.81
2024-02-24T02:30:13.939Z,100070.66
2024-02-24T02:33:35.935Z,100076.78
2024-02-24T02:36:57.538Z,100069.03
2024-02-24T02:40:20.748Z,100066.56
2024-02-24T02:43:42.351Z,100066.59
2024-02-24T02:47:11.321Z,100062.50
2024-02-24T02:50:39.445Z,100064.06
2024-02-24T02:54:01.299Z,100053.81
2024-02-24T02:57:25.646Z,100062.47
2024-02-24T03:00:48.535Z,100071.19
2024-02-24T03:04:10.278Z,100073.78
2024-02-24T03:07:32.252Z,100074.72
2024-02-24T03:10:54.019Z,100079.09
2024-02-24T03:14:17.386Z,100075.69
2024-02-24T03:17:38.934Z,100076.59
2024-02-24T03:21:00.723Z,100070.59
2024-02-24T03:24:22.660Z,100076.66
2024-02-24T03:27:44.471Z,100075.97
2024-02-24T03:31:07.846Z,100078.50
2024-02-24T03:34:29.575Z,100059.69
2024-02-24T03:37:51.476Z,100065.72
2024-02-24T03:41:14.103Z,100062.28
2024-02-24T03:44:36.131Z,100056.25
2024-02-24T03:47:59.429Z,100073.47
2024-02-24T03:51:21.847Z,100063.25
2024-02-24T03:54:43.716Z,100077.84
2024-02-24T03:58:05.884Z,100072.69
2024-02-24T04:01:28.864Z,100084.72
2024-02-24T04:04:53.407Z,100083.00
2024-02-24T04:08:15.539Z,100089.88
2024-02-24T04:11:37.930Z,100082.34
2024-02-24T04:14:59.741Z,100112.25
2024-02-24T04:18:21.804Z,100108.00
2024-02-24T04:21:45.075Z,100113.09
2024-02-24T04:25:07.731Z,100105.41
2024-02-24T04:28:29.589Z,100080.56
2024-02-24T04:31:51.339Z,100100.25
2024-02-24T04:35:13.536Z,100097.72
2024-02-24T04:38:36.959Z,100087.53
2024-02-24T04:41:58.945Z,100097.69
2024-02-24T04:45:20.792Z,100097.69
2024-02-24T04:48:43.819Z,100099.41
2024-02-24T04:52:06.818Z,100095.09
2024-02-24T04:55:30.107Z,100098.63
2024-02-24T04:58:51.623Z,100094.31
2024-02-24T05:02:13.672Z,100087.50
2024-02-24T05:05:35.876Z,100094.31
2024-02-24T05:08:57.820Z,100082.41
2024-02-24T05:12:21.108Z,100074.69
2024-02-24T05:15:42.737Z,100045.69
2024-02-24T05:19:04.778Z,100048.13
2024-02-24T05:22:26.532Z,100046.38
2024-02-24T05:25:49.762Z,100046.41
2024-02-24T05:29:13.414Z,100034.44
2024-02-24T05:32:35.394Z,100030.13
2024-02-24T05:35:57.076Z,100013.97
2024-02-24T05:39:18.827Z,100024.19
2024-02-24T05:42:40.782Z,100022.47
2024-02-24T05:46:07.907Z,99987.44
2024-02-24T05:49:29.422Z,100000.16
2024-02-24T05:52:51.271Z,100002.72
2024-02-24T05:56:13.119Z,100000.16
2024-02-24T05:59:34.743Z,99997.78
2024-02-24T06:02:57.954Z,100004.53
2024-02-24T06:06:20.220Z,100018.22
2024-02-24T06:09:42.189Z,100019.88
2024-02-24T06:13:06.026Z,100015.56
2024-02-24T06:16:27.915Z,99999.31
2024-02-24T06:19:51.204Z,99999.38
2024-02-24T06:23:12.784Z,100021.56
2024-02-24T06:26:34.729Z,100023.19
2024-02-24T06:29:56.633Z,100018.00
2024-02-24T06:33:18.503Z,100017.94
2024-02-24T06:36:41.778Z,100028.19
2024-02-24T06:40:03.697Z,100043.59
2024-02-24T06:43:27.390Z,100048.72
2024-02-24T06:46:50.672Z,100068.38
2024-02-24T06:50:13.956Z,100065.72
2024-02-24T06:53:39.030Z,100053.63
2024-02-24T06:57:01.745Z,100039.97
2024-02-24T07:00:24.666Z,100036.34
2024-02-24T07:03:46.799Z,100025.91
2024-02-24T07:07:09.734Z,100008.69
2024-02-24T07:10:32.785Z,100004.28
2024-02-24T07:13:54.289Z,99977.09
2024-02-24T07:17:15.920Z,100007.50
2024-02-24T07:20:37.706Z,99999.72
2024-02-24T07:23:59.235Z,99989.47
2024-02-24T07:27:22.314Z,100003.00
2024-02-24T07:30:44.238Z,99992.66
2024-02-24T07:34:06.760Z,99984.75
2024-02-24T07:37:28.497Z,99975.19
2024-02-24T07:40:50.002Z,99959.59
2024-02-24T07:44:13.355Z,99964.75
2024-02-24T07:47:35.257Z,99930.69
2024-02-24T07:50:57.387Z,99951.78
2024-02-24T07:54:19.278Z,99948.16
2024-02-24T07:57:41.397Z,99968.75
2024-02-24T08:01:04.663Z,99959.19
2024-02-24T08:04:26.949Z,99942.00
2024-02-24T08:07:48.829Z,99952.84
2024-02-24T08:11:10.673Z,99954.53
2024-02-24T08:14:32.764Z,99952.03
2024-02-24T08:17:55.954Z,99952.00
2024-02-24T08:21:17.873Z,99963.16
2024-02-24T08:24:39.570Z,99970.03
2024-02-24T08:28:02.094Z,99953.03
2024-02-24T08:31:24.302Z,99956.28
2024-02-24T08:34:47.661Z,99955.50
2024-02-24T08:38:09.676Z,99955.41
2024-02-24T08:41:33.446Z,99939.94
2024-02-24T08:44:55.457Z,99927.84
2024-02-24T08:48:17.969Z,99930.41
2024-02-24T08:51:41.350Z,99932.06
2024-02-24T08:55:02.989Z,99930.31
2024-02-24T08:58:24.586Z,99911.31
2024-02-24T09:01:46.788Z,99911.22
2024-02-24T09:05:09.361Z,99919.63
2024-02-24T09:08:32.965Z,99917.88
2024-02-24T09:11:54.884Z,99923.78
2024-02-24T09:15:16.759Z,99923.78
2024-02-24T09:18:38.699Z,99923.72
2024-02-24T09:22:00.984Z,99912.53
2024-02-24T09:25:23.850Z,99919.53
2024-02-24T09:28:45.391Z,99910.97
2024-02-24T09:32:07.754Z,99908.44
2024-02-24T09:35:29.427Z,99905.81
2024-02-24T09:38:51.323Z,99897.97
2024-02-24T09:42:14.440Z,99880.22
2024-02-24T09:45:37.204Z,99892.75
2024-02-24T09:48:59.771Z,99882.50
2024-02-24T09:52:21.691Z,99861.03
2024-02-24T09:55:45.030Z,99863.50
2024-02-24T09:59:09.315Z,99854.81
2024-02-24T10:02:30.954Z,99855.66
2024-02-24T10:05:53.160Z,99855.72
2024-02-24T10:09:15.301Z,99837.56
2024-02-24T10:12:37.219Z,99833.34
2024-02-24T10:16:05.165Z,99828.16
2024-02-24T10:19:32.124Z,99824.59
2024-02-24T10:22:54.288Z,99814.41
2024-02-24T10:26:17.131Z,99806.59
2024-02-24T10:29:38.953Z,99813.38
2024-02-24T10:33:03.375Z,99804.66
2024-02-24T10:36:28.183Z,99793.41
2024-02-24T10:39:52.283Z,99792.63
2024-02-24T10:43:13.915Z,99782.28
2024-02-24T10:46:36.896Z,99768.59
2024-02-24T10:50:00.323Z,99765.81
2024-02-24T10:53:28.612Z,99762.38
2024-02-24T10:56:57.404Z,99759.72
2024-02-24T11:00:32.304Z,99760.56
2024-02-24T11:03:56.596Z,99744.16
2024-02-24T11:07:21.757Z,99734.59
2024-02-24T11:10:45.600Z,99721.78
2024-02-24T11:17:48.969Z,99698.50
2024-02-24T11:21:10.694Z,99696.13
2024-02-24T11:24:36.053Z,99707.88
2024-02-24T11:27:58.379Z,99705.28
2024-02-24T11:31:29.727Z,99703.56
2024-02-24T11:34:52.319Z,99705.28
2024-02-24T11:38:15.720Z,99682.00
2024-02-24T11:41:41.483Z,99672.59
2024-02-24T11:45:05.616Z,99673.34
2024-02-24T11:48:27.987Z,99666.41
2024-02-24T11:51:50.219Z,99668.97
2024-02-24T11:55:12.433Z,99662.91
2024-02-24T11:58:36.264Z,99656.81
2024-02-24T12:01:58.319Z,99637.94
2024-02-24T12:05:22.040Z,99635.06
2024-02-24T12:08:44.533Z,99633.31
2024-02-24T12:12:07.589Z,99623.84
2024-02-24T12:15:31.327Z,99616.97
2024-02-24T12:18:53.915Z,99620.19
2024-02-24T12:22:16.049Z,99604.56
2024-02-24T12:25:38.879Z,99588.03
2024-02-24T12:29:01.236Z,99594.84
2024-02-24T12:32:25.297Z,99591.19
2024-02-24T12:35:49.867Z,99571.16
2024-02-24T12:39:12.299Z,99576.97
2024-02-24T12:42:40.407Z,99570.81
2024-02-24T12:46:02.370Z,99562.00
2024-02-24T12:49:25.771Z,99551.59
2024-02-24T12:52:48.351Z,99540.22
2024-02-24T12:56:10.280Z,99528.06
2024-02-24T12:59:31.941Z,99504.78
2024-02-24T13:02:57.402Z,99522.47
2024-02-24T13:06:21.390Z,99509.53
2024-02-24T13:09:43.093Z,99512.72
2024-02-24T13:13:06.028Z,99502.22
2024-02-24T13:16:28.040Z,99483.22
2024-02-24T13:19:52.651Z,99490.91
2024-02-24T13:23:18.421Z,99487.31
2024-02-24T13:26:41.821Z,99468.44
2024-02-24T13:30:03.915Z,99483.63
2024-02-24T13:33:26.187Z,99470.91
2024-02-24T13:36:48.472Z,99488.63
2024-02-24T13:40:12.755Z,99473.00
2024-02-24T13:43:34.995Z,99467.69
2024-02-24T13:46:57.358Z,99462.53
2024-02-24T13:50:21.337Z,99461.56
2024-02-24T13:53:43.522Z,99448.47
2024-02-24T13:57:07.440Z,99451.91
2024-02-24T14:00:29.442Z,99441.38
2024-02-24T14:03:51.446Z,99427.47
2024-02-24T14:07:15.053Z,99421.56
2024-02-24T14:10:37.395Z,99422.94
2024-02-24T14:14:00.793Z,99418.38
2024-02-24T14:17:24.399Z,99403.75
2024-02-24T14:20:46.453Z,99403.53
2024-02-24T14:24:08.870Z,99404.41
2024-02-24T14:27:31.144Z,99395.75
2024-02-24T14:30:56.034Z,99381.78
2024-02-24T14:34:18.924Z,99390.13
2024-02-24T14:37:41.294Z,99381.44
2024-02-24T14:41:03.618Z,99374.44
2024-02-24T14:44:25.903Z,99379.53
2024-02-24T14:47:49.879Z,99377.69
2024-02-24T14:51:12.394Z,99388.81
2024-02-24T14:54:34.922Z,99361.06
2024-02-24T14:57:57.180Z,99362.59
2024-02-24T15:01:19.338Z,99351.34
2024-02-24T15:04:43.123Z,99353.84
2024-02-24T15:08:05.620Z,99365.00
2024-02-24T15:11:28.494Z,99344.13
2024-02-24T15:14:50.672Z,99351.00
2024-02-24T15:18:12.553Z,99365.56
2024-02-24T15:21:35.950Z,99348.19
2024-02-24T15:24:57.535Z,99344.78
2024-02-24T15:28:19.954Z,99355.84
2024-02-24T15:31:41.893Z,99351.41
2024-02-24T15:35:04.111Z,99324.03
2024-02-24T15:38:27.921Z,99346.03
2024-02-24T15:41:50.016Z,99340.00
2024-02-24T15:45:12.014Z,99354.63
2024-02-24T15:48:35.547Z,99323.53
2024-02-24T15:51:59.423Z,99320.16
2024-02-24T15:55:23.102Z,99320.72
2024-02-24T15:58:46.071Z,99323.19
2024-02-24T16:02:08.130Z,99317.22
2024-02-24T16:05:30.382Z,99320.50
2024-02-24T16:08:53.846Z,99321.28
2024-02-24T16:12:17.347Z,99316.97
2024-02-24T16:15:39.374Z,99316.88
2024-02-24T16:19:03.174Z,99316.00
2024-02-24T16:22:26.146Z,99312.44
2024-02-24T16:25:47.910Z,99312.28
2024-02-24T16:29:11.049Z,99301.84
2024-02-24T16:32:33.474Z,99307.03
2024-02-24T16:35:55.609Z,99307.78
2024-02-24T16:39:17.444Z,99308.72
2024-02-24T16:42:39.483Z,99312.81
2024-02-24T16:46:03.667Z,99307.56
2024-02-24T16:49:25.698Z,99310.09
2024-02-24T16:52:47.381Z,99315.28
2024-02-24T16:56:09.360Z,99300.63
2024-02-24T16:59:31.438Z,99297.06
2024-02-24T17:02:54.865Z,99297.69
2024-02-24T17:06:16.737Z,99285.59
2024-02-24T17:09:38.978Z,99287.22
2024-02-24T17:13:01.178Z,99287.06
2024-02-24T17:16:23.225Z,99283.63
2024-02-24T17:19:46.906Z,99270.50
2024-02-24T17:23:13.524Z,99276.47
2024-02-24T17:26:35.680Z,99266.94
2024-02-24T17:29:57.533Z,99267.63
2024-02-24T17:33:19.213Z,99262.44
2024-02-24T17:36:45.850Z,99234.72
2024-02-24T17:40:08.670Z,99237.25
2024-02-24T17:43:30.660Z,99236.31
2024-02-24T17:46:52.448Z,99242.44
2024-02-24T17:50:15.248Z,99249.28
2024-02-24T17:53:38.444Z,99229.38
2024-02-24T17:57:00.376Z,99249.28
2024-02-24T18:00:24.037Z,99237.09
2024-02-24T18:03:45.891Z,99245.47
2024-02-24T18:07:07.550Z,99245.56
2024-02-24T18:10:31.199Z,99253.09
2024-02-24T18:13:53.020Z,99240.13
2024-02-24T18:17:16.051Z,99239.28
2024-02-24T18:20:39.497Z,99226.41
2024-02-24T18:24:01.565Z,99240.69
2024-02-24T18:27:24.839Z,99235.34
2024-02-24T18:30:46.568Z,99232.66
2024-02-24T18:34:11.064Z,99241.06
2024-02-24T18:37:33.174Z,99235.69
2024-02-24T18:40:55.404Z,99216.53
2024-02-24T18:44:19.273Z,99221.56
2024-02-24T18:47:41.360Z,99216.06
2024-02-24T18:51:04.407Z,99207.34
2024-02-24T18:54:29.442Z,99209.88
2024-02-24T18:57:51.518Z,99196.78
2024-02-24T19:01:14.877Z,99201.00
2024-02-24T19:04:37.480Z,99201.91
2024-02-24T19:07:59.051Z,99209.56
2024-02-24T19:11:21.220Z,99204.34
2024-02-24T19:14:51.360Z,99211.97
2024-02-24T19:18:18.070Z,99190.00
2024-02-24T19:21:40.168Z,99230.53
2024-02-24T19:25:02.370Z,99244.13
2024-02-24T19:28:24.084Z,99237.94
2024-02-24T19:31:45.930Z,99249.25
2024-02-24T19:35:10.003Z,99269.19
2024-02-24T19:38:32.026Z,99265.13
2024-02-24T19:41:55.116Z,99305.25
2024-02-24T19:45:19.485Z,99323.88
2024-02-24T19:48:41.535Z,99351.63
2024-02-24T19:52:04.937Z,99349.28
2024-02-24T19:55:26.580Z,99358.13
2024-02-24T19:58:54.706Z,99358.44
2024-02-24T20:02:18.518Z,99370.91
2024-02-24T20:05:40.712Z,99370.78
2024-02-24T20:09:03.973Z,99383.28
2024-02-24T20:12:25.905Z,99388.06
2024-02-24T20:15:47.835Z,99389.47
2024-02-24T20:19:09.697Z,99391.88
2024-02-24T20:22:31.357Z,99415.41
2024-02-24T20:25:54.758Z,99422.25
2024-02-24T20:29:19.027Z,99418.28
2024-02-24T20:32:41.018Z,99446.97
2024-02-24T20:36:02.948Z,99460.09
2024-02-24T20:39:24.706Z,99452.66
2024-02-24T20:42:47.934Z,99484.97
2024-02-24T20:46:10.433Z,99461.31
2024-02-24T20:49:31.999Z,99491.75
2024-02-24T20:52:54.210Z,99489.44
2024-02-24T20:56:16.118Z,99520.19
2024-02-24T20:59:39.461Z,99532.75
2024-02-24T21:03:01.393Z,99533.00
2024-02-24T21:06:24.867Z,99544.59
2024-02-24T21:09:46.584Z,99551.81
2024-02-24T21:13:08.499Z,99565.63
2024-02-24T21:16:32.655Z,99559.19
2024-02-24T21:19:55.041Z,99576.56
2024-02-24T21:23:16.989Z,99587.03
2024-02-24T21:26:38.640Z,99601.84
2024-02-24T21:30:00.766Z,99617.50
2024-02-24T21:33:24.533Z,99625.53
2024-02-24T21:36:46.402Z,99642.97
2024-02-24T21:40:09.889Z,99647.38
2024-02-24T21:43:31.585Z,99658.59
2024-02-24T21:46:53.558Z,99667.44
2024-02-24T21:50:16.993Z,99698.63
2024-02-24T21:53:39.219Z,99725.59
2024-02-24T21:57:01.776Z,99720.63
2024-02-24T22:00:26.946Z,99722.78
2024-02-24T22:03:50.018Z,99756.28
2024-02-24T22:07:13.479Z,99762.34
2024-02-24T22:10:35.109Z,99778.97
2024-02-24T22:13:56.965Z,99807.47
2024-02-24T22:17:19.655Z,99805.88
2024-02-24T22:20:42.460Z,99822.34
2024-02-24T22:24:06.729Z,99854.28
2024-02-24T22:27:29.798Z,99859.63
2024-02-24T22:30:51.586Z,99865.81
2024-02-24T22:34:13.872Z,99882.34
2024-02-24T22:37:36.413Z,99891.19
2024-02-24T22:40:59.613Z,99900.75
2024-02-24T22:44:21.418Z,99924.91
2024-02-24T22:47:45.980Z,99932.72
2024-02-24T22:51:10.119Z,99950.03
2024-02-24T22:54:31.745Z,99973.22
2024-02-24T22:57:54.683Z,99980.97
2024-02-24T23:01:16.740Z,99983.59
2024-02-24T23:04:39.973Z,99999.94
2024-02-24T23:08:02.396Z,100008.50
2024-02-24T23:11:32.565Z,100035.09
2024-02-24T23:14:59.320Z,100046.25
2024-02-24T23:18:21.203Z,100058.31
2024-02-24T23:21:43.069Z,100060.16
2024-02-24T23:25:05.410Z,100072.13
2024-02-24T23:28:27.020Z,100095.28
2024-02-24T23:31:50.785Z,100118.47
2024-02-24T23:35:13.321Z,100133.81
2024-02-24T23:38:35.210Z,100120.16
2024-02-24T23:41:56.952Z,100149.25
2024-02-24T23:45:18.889Z,100158.66
2024-02-24T23:48:47.567Z,100151.88
2024-02-24T23:52:09.552Z,100180.13
2024-02-24T23:55:31.242Z,100199.84
2024-02-24T23:58:53.686Z,100211.06
